sensor_id;sensor_type;location;lat;lon;timestamp;temperature;humidity
46137;DHT22;31871;49.418;8.752;2022-12-29T00:01:34;8.20;99.90
46137;DHT22;31871;49.418;8.752;2022-12-29T00:04:00;8.30;99.90
46137;DHT22;31871;49.418;8.752;2022-12-29T00:06:25;8.40;99.90
46137;DHT22;31871;49.418;8.752;2022-12-29T00:08:51;8.50;99.90
46137;DHT22;31871;49.418;8.752;2022-12-29T00:11:22;8.60;99.90
46137;DHT22;31871;49.418;8.752;2022-12-29T00:13:48;8.70;99.90
46137;DHT22;31871;49.418;8.752;2022-12-29T00:16:34;8.90;99.90
46137;DHT22;31871;49.418;8.752;2022-12-29T00:18:59;8.90;99.90
46137;DHT22;31871;49.418;8.752;2022-12-29T00:21:26;9.00;99.90
46137;DHT22;31871;49.418;8.752;2022-12-29T00:24:16;8.90;99.90
46137;DHT22;31871;49.418;8.752;2022-12-29T00:29:46;8.90;99.90
46137;DHT22;31871;49.418;8.752;2022-12-29T00:32:30;9.10;99.90
46137;DHT22;31871;49.418;8.752;2022-12-29T00:35:15;9.10;99.90
46137;DHT22;31871;49.418;8.752;2022-12-29T00:37:43;9.30;99.90
46137;DHT22;31871;49.418;8.752;2022-12-29T00:40:28;9.30;99.90
46137;DHT22;31871;49.418;8.752;2022-12-29T00:43:12;9.50;99.90
46137;DHT22;31871;49.418;8.752;2022-12-29T00:45:56;9.60;99.90
46137;DHT22;31871;49.418;8.752;2022-12-29T00:48:30;9.60;99.90
46137;DHT22;31871;49.418;8.752;2022-12-29T00:51:14;9.70;99.90
46137;DHT22;31871;49.418;8.752;2022-12-29T00:53:40;9.60;99.90
46137;DHT22;31871;49.418;8.752;2022-12-29T00:56:05;9.50;99.90
46137;DHT22;31871;49.418;8.752;2022-12-29T00:58:31;9.40;99.90
46137;DHT22;31871;49.418;8.752;2022-12-29T01:01:05;9.40;99.90
46137;DHT22;31871;49.418;8.752;2022-12-29T01:03:31;9.40;99.90
46137;DHT22;31871;49.418;8.752;2022-12-29T01:06:00;9.40;99.90
46137;DHT22;31871;49.418;8.752;2022-12-29T01:08:28;9.60;99.90
46137;DHT22;31871;49.418;8.752;2022-12-29T01:11:09;9.70;99.90
46137;DHT22;31871;49.418;8.752;2022-12-29T01:13:35;9.70;99.90
46137;DHT22;31871;49.418;8.752;2022-12-29T01:16:04;9.60;99.90
46137;DHT22;31871;49.418;8.752;2022-12-29T01:18:30;9.60;99.90
46137;DHT22;31871;49.418;8.752;2022-12-29T01:21:04;9.60;99.90
46137;DHT22;31871;49.418;8.752;2022-12-29T01:23:29;9.60;99.90
46137;DHT22;31871;49.418;8.752;2022-12-29T01:25:55;9.80;99.90
46137;DHT22;31871;49.418;8.752;2022-12-29T01:28:21;10.00;99.90
46137;DHT22;31871;49.418;8.752;2022-12-29T01:30:47;10.20;99.90
46137;DHT22;31871;49.418;8.752;2022-12-29T01:33:12;10.30;99.90
46137;DHT22;31871;49.418;8.752;2022-12-29T01:35:38;10.40;99.90
46137;DHT22;31871;49.418;8.752;2022-12-29T01:38:04;10.50;99.90
46137;DHT22;31871;49.418;8.752;2022-12-29T01:40:30;10.60;99.90
46137;DHT22;31871;49.418;8.752;2022-12-29T01:42:55;10.70;99.90
46137;DHT22;31871;49.418;8.752;2022-12-29T01:45:21;10.80;99.90
46137;DHT22;31871;49.418;8.752;2022-12-29T01:47:59;10.90;99.90
46137;DHT22;31871;49.418;8.752;2022-12-29T01:50:31;10.90;99.90
46137;DHT22;31871;49.418;8.752;2022-12-29T01:53:03;11.00;99.90
46137;DHT22;31871;49.418;8.752;2022-12-29T01:55:34;11.20;99.90
46137;DHT22;31871;49.418;8.752;2022-12-29T01:58:04;11.20;99.90
46137;DHT22;31871;49.418;8.752;2022-12-29T02:00:30;11.20;99.90
46137;DHT22;31871;49.418;8.752;2022-12-29T02:02:56;11.20;99.90
46137;DHT22;31871;49.418;8.752;2022-12-29T02:05:39;11.30;99.90
46137;DHT22;31871;49.418;8.752;2022-12-29T02:08:06;11.40;99.90
46137;DHT22;31871;49.418;8.752;2022-12-29T02:10:32;11.30;99.90
46137;DHT22;31871;49.418;8.752;2022-12-29T02:12:59;11.40;99.90
46137;DHT22;31871;49.418;8.752;2022-12-29T02:15:36;11.40;99.90
46137;DHT22;31871;49.418;8.752;2022-12-29T02:18:32;11.30;99.90
46137;DHT22;31871;49.418;8.752;2022-12-29T02:26:22;11.40;99.90
46137;DHT22;31871;49.418;8.752;2022-12-29T02:31:31;11.40;99.90
46137;DHT22;31871;49.418;8.752;2022-12-29T02:37:02;11.50;99.90
46137;DHT22;31871;49.418;8.752;2022-12-29T02:44:52;11.40;99.90
46137;DHT22;31871;49.418;8.752;2022-12-29T02:50:13;11.20;99.90
46137;DHT22;31871;49.418;8.752;2022-12-29T02:52:52;11.30;99.90
46137;DHT22;31871;49.418;8.752;2022-12-29T02:55:19;11.40;99.90
46137;DHT22;31871;49.418;8.752;2022-12-29T02:57:45;11.40;99.90
46137;DHT22;31871;49.418;8.752;2022-12-29T03:00:14;11.40;99.90
46137;DHT22;31871;49.418;8.752;2022-12-29T03:06:57;11.30;99.90
46137;DHT22;31871;49.418;8.752;2022-12-29T03:11:43;11.10;99.90
46137;DHT22;31871;49.418;8.752;2022-12-29T03:14:39;11.10;99.90
46137;DHT22;31871;49.418;8.752;2022-12-29T03:17:51;11.10;99.90
46137;DHT22;31871;49.418;8.752;2022-12-29T03:21:08;11.10;99.90
46137;DHT22;31871;49.418;8.752;2022-12-29T03:23:27;11.00;99.90
46137;DHT22;31871;49.418;8.752;2022-12-29T03:25:58;11.00;99.90
46137;DHT22;31871;49.418;8.752;2022-12-29T03:28:31;11.00;99.90
46137;DHT22;31871;49.418;8.752;2022-12-29T03:30:58;10.90;99.90
46137;DHT22;31871;49.418;8.752;2022-12-29T03:33:27;10.90;99.90
46137;DHT22;31871;49.418;8.752;2022-12-29T03:35:58;10.90;99.90
46137;DHT22;31871;49.418;8.752;2022-12-29T03:38:33;10.90;99.90
46137;DHT22;31871;49.418;8.752;2022-12-29T03:41:01;10.90;99.90
46137;DHT22;31871;49.418;8.752;2022-12-29T03:43:29;10.80;99.90
46137;DHT22;31871;49.418;8.752;2022-12-29T03:45:55;10.80;99.90
46137;DHT22;31871;49.418;8.752;2022-12-29T03:48:20;10.80;99.90
46137;DHT22;31871;49.418;8.752;2022-12-29T03:50:46;10.90;99.90
46137;DHT22;31871;49.418;8.752;2022-12-29T03:53:12;10.90;99.90
46137;DHT22;31871;49.418;8.752;2022-12-29T03:55:37;10.90;99.90
46137;DHT22;31871;49.418;8.752;2022-12-29T03:58:03;10.90;99.90
46137;DHT22;31871;49.418;8.752;2022-12-29T04:00:28;10.80;99.90
46137;DHT22;31871;49.418;8.752;2022-12-29T04:02:54;10.90;99.90
46137;DHT22;31871;49.418;8.752;2022-12-29T04:05:20;10.90;99.90
46137;DHT22;31871;49.418;8.752;2022-12-29T04:07:46;11.00;99.90
46137;DHT22;31871;49.418;8.752;2022-12-29T04:10:11;11.10;99.90
46137;DHT22;31871;49.418;8.752;2022-12-29T04:12:37;11.10;99.90
46137;DHT22;31871;49.418;8.752;2022-12-29T04:15:02;11.00;99.90
46137;DHT22;31871;49.418;8.752;2022-12-29T04:17:28;11.00;99.90
46137;DHT22;31871;49.418;8.752;2022-12-29T04:19:54;11.00;99.90
46137;DHT22;31871;49.418;8.752;2022-12-29T04:22:39;10.90;99.90
46137;DHT22;31871;49.418;8.752;2022-12-29T04:25:05;11.00;99.90
46137;DHT22;31871;49.418;8.752;2022-12-29T04:27:31;11.10;99.90
46137;DHT22;31871;49.418;8.752;2022-12-29T04:29:56;11.10;99.90
46137;DHT22;31871;49.418;8.752;2022-12-29T04:32:22;11.10;99.90
46137;DHT22;31871;49.418;8.752;2022-12-29T04:34:47;11.10;99.90
46137;DHT22;31871;49.418;8.752;2022-12-29T04:37:13;11.20;99.90
46137;DHT22;31871;49.418;8.752;2022-12-29T04:39:38;11.20;99.90
46137;DHT22;31871;49.418;8.752;2022-12-29T04:42:04;11.10;99.90
46137;DHT22;31871;49.418;8.752;2022-12-29T04:44:29;11.00;99.90
46137;DHT22;31871;49.418;8.752;2022-12-29T04:46:55;11.00;99.90
46137;DHT22;31871;49.418;8.752;2022-12-29T04:49:20;10.90;99.90
46137;DHT22;31871;49.418;8.752;2022-12-29T04:51:46;10.90;99.90
46137;DHT22;31871;49.418;8.752;2022-12-29T04:54:11;10.90;99.90
46137;DHT22;31871;49.418;8.752;2022-12-29T04:56:37;11.10;99.90
46137;DHT22;31871;49.418;8.752;2022-12-29T04:59:02;11.10;99.90
46137;DHT22;31871;49.418;8.752;2022-12-29T05:01:28;11.10;99.90
46137;DHT22;31871;49.418;8.752;2022-12-29T05:03:54;11.20;99.90
46137;DHT22;31871;49.418;8.752;2022-12-29T05:06:19;11.20;99.90
46137;DHT22;31871;49.418;8.752;2022-12-29T05:08:45;11.20;99.90
46137;DHT22;31871;49.418;8.752;2022-12-29T05:11:10;11.20;99.90
46137;DHT22;31871;49.418;8.752;2022-12-29T05:13:36;11.20;99.90
46137;DHT22;31871;49.418;8.752;2022-12-29T05:16:01;11.30;99.90
46137;DHT22;31871;49.418;8.752;2022-12-29T05:18:27;11.40;99.90
46137;DHT22;31871;49.418;8.752;2022-12-29T05:20:53;11.40;99.90
46137;DHT22;31871;49.418;8.752;2022-12-29T05:23:18;11.30;99.90
46137;DHT22;31871;49.418;8.752;2022-12-29T05:25:44;11.30;99.90
46137;DHT22;31871;49.418;8.752;2022-12-29T05:28:13;11.30;99.90
46137;DHT22;31871;49.418;8.752;2022-12-29T05:30:39;11.20;99.90
46137;DHT22;31871;49.418;8.752;2022-12-29T05:33:04;11.20;99.90
46137;DHT22;31871;49.418;8.752;2022-12-29T05:35:32;11.20;99.90
46137;DHT22;31871;49.418;8.752;2022-12-29T05:37:57;11.20;99.90
46137;DHT22;31871;49.418;8.752;2022-12-29T05:40:23;11.20;99.90
46137;DHT22;31871;49.418;8.752;2022-12-29T05:42:48;11.40;99.90
46137;DHT22;31871;49.418;8.752;2022-12-29T05:45:14;11.40;99.90
46137;DHT22;31871;49.418;8.752;2022-12-29T05:47:39;11.50;99.90
46137;DHT22;31871;49.418;8.752;2022-12-29T05:50:05;11.40;99.90
46137;DHT22;31871;49.418;8.752;2022-12-29T05:52:31;11.40;99.90
46137;DHT22;31871;49.418;8.752;2022-12-29T05:54:56;11.40;99.90
46137;DHT22;31871;49.418;8.752;2022-12-29T05:57:22;11.30;99.90
46137;DHT22;31871;49.418;8.752;2022-12-29T05:59:47;11.30;99.90
46137;DHT22;31871;49.418;8.752;2022-12-29T06:02:13;11.30;99.90
46137;DHT22;31871;49.418;8.752;2022-12-29T06:04:38;11.40;99.90
46137;DHT22;31871;49.418;8.752;2022-12-29T06:07:04;11.30;99.90
46137;DHT22;31871;49.418;8.752;2022-12-29T06:09:29;11.30;99.90
46137;DHT22;31871;49.418;8.752;2022-12-29T06:11:55;11.20;99.90
46137;DHT22;31871;49.418;8.752;2022-12-29T06:14:20;11.30;99.90
46137;DHT22;31871;49.418;8.752;2022-12-29T06:16:46;11.20;99.90
46137;DHT22;31871;49.418;8.752;2022-12-29T06:19:11;11.30;99.90
46137;DHT22;31871;49.418;8.752;2022-12-29T06:21:37;11.30;99.90
46137;DHT22;31871;49.418;8.752;2022-12-29T06:24:03;11.30;99.90
46137;DHT22;31871;49.418;8.752;2022-12-29T06:26:29;11.30;99.90
46137;DHT22;31871;49.418;8.752;2022-12-29T06:28:55;11.40;99.90
46137;DHT22;31871;49.418;8.752;2022-12-29T06:31:20;11.40;99.90
46137;DHT22;31871;49.418;8.752;2022-12-29T06:33:46;11.40;99.90
46137;DHT22;31871;49.418;8.752;2022-12-29T06:36:12;11.50;99.90
46137;DHT22;31871;49.418;8.752;2022-12-29T06:38:37;11.50;99.90
46137;DHT22;31871;49.418;8.752;2022-12-29T06:41:03;11.60;99.90
46137;DHT22;31871;49.418;8.752;2022-12-29T06:43:28;11.60;99.90
46137;DHT22;31871;49.418;8.752;2022-12-29T06:45:55;11.60;99.90
46137;DHT22;31871;49.418;8.752;2022-12-29T06:48:21;11.50;99.90
46137;DHT22;31871;49.418;8.752;2022-12-29T06:50:46;11.50;99.90
46137;DHT22;31871;49.418;8.752;2022-12-29T06:53:12;11.50;99.90
46137;DHT22;31871;49.418;8.752;2022-12-29T06:55:37;11.50;99.90
46137;DHT22;31871;49.418;8.752;2022-12-29T06:58:03;11.50;99.90
46137;DHT22;31871;49.418;8.752;2022-12-29T07:00:28;11.50;99.90
46137;DHT22;31871;49.418;8.752;2022-12-29T07:02:55;11.50;99.90
46137;DHT22;31871;49.418;8.752;2022-12-29T07:05:21;11.50;99.90
46137;DHT22;31871;49.418;8.752;2022-12-29T07:07:47;11.50;99.90
46137;DHT22;31871;49.418;8.752;2022-12-29T07:10:12;11.50;99.90
46137;DHT22;31871;49.418;8.752;2022-12-29T07:12:38;11.60;99.90
46137;DHT22;31871;49.418;8.752;2022-12-29T07:15:04;11.60;99.90
46137;DHT22;31871;49.418;8.752;2022-12-29T07:17:29;11.60;99.90
46137;DHT22;31871;49.418;8.752;2022-12-29T07:19:55;11.60;99.90
46137;DHT22;31871;49.418;8.752;2022-12-29T07:22:20;11.60;99.90
46137;DHT22;31871;49.418;8.752;2022-12-29T07:24:46;11.60;99.90
46137;DHT22;31871;49.418;8.752;2022-12-29T07:27:11;11.70;99.90
46137;DHT22;31871;49.418;8.752;2022-12-29T07:29:37;11.60;99.90
46137;DHT22;31871;49.418;8.752;2022-12-29T07:32:04;11.60;99.90
46137;DHT22;31871;49.418;8.752;2022-12-29T07:34:29;11.60;99.90
46137;DHT22;31871;49.418;8.752;2022-12-29T07:36:55;11.60;99.90
46137;DHT22;31871;49.418;8.752;2022-12-29T07:39:20;11.60;99.90
46137;DHT22;31871;49.418;8.752;2022-12-29T07:41:46;11.60;99.90
46137;DHT22;31871;49.418;8.752;2022-12-29T07:44:11;11.60;99.90
46137;DHT22;31871;49.418;8.752;2022-12-29T07:46:37;11.60;99.90
46137;DHT22;31871;49.418;8.752;2022-12-29T07:49:02;11.70;99.90
46137;DHT22;31871;49.418;8.752;2022-12-29T07:51:28;11.80;99.90
46137;DHT22;31871;49.418;8.752;2022-12-29T07:53:54;11.80;99.90
46137;DHT22;31871;49.418;8.752;2022-12-29T07:56:19;11.70;99.90
46137;DHT22;31871;49.418;8.752;2022-12-29T07:58:45;11.70;99.90
46137;DHT22;31871;49.418;8.752;2022-12-29T08:01:10;11.70;99.90
46137;DHT22;31871;49.418;8.752;2022-12-29T08:03:36;11.70;99.90
46137;DHT22;31871;49.418;8.752;2022-12-29T08:06:02;11.70;99.90
46137;DHT22;31871;49.418;8.752;2022-12-29T08:08:27;11.70;99.90
46137;DHT22;31871;49.418;8.752;2022-12-29T08:10:54;11.80;99.90
46137;DHT22;31871;49.418;8.752;2022-12-29T08:13:19;11.80;99.90
46137;DHT22;31871;49.418;8.752;2022-12-29T08:15:45;11.80;99.90
46137;DHT22;31871;49.418;8.752;2022-12-29T08:18:10;11.70;99.90
46137;DHT22;31871;49.418;8.752;2022-12-29T08:20:36;11.80;99.90
46137;DHT22;31871;49.418;8.752;2022-12-29T08:23:01;11.90;99.90
46137;DHT22;31871;49.418;8.752;2022-12-29T08:25:27;11.90;99.90
46137;DHT22;31871;49.418;8.752;2022-12-29T08:27:52;11.90;99.90
46137;DHT22;31871;49.418;8.752;2022-12-29T08:30:18;11.90;99.90
46137;DHT22;31871;49.418;8.752;2022-12-29T08:32:43;11.90;99.90
46137;DHT22;31871;49.418;8.752;2022-12-29T08:35:09;11.90;99.90
46137;DHT22;31871;49.418;8.752;2022-12-29T08:37:34;11.90;99.90
46137;DHT22;31871;49.418;8.752;2022-12-29T08:40:00;12.00;99.90
46137;DHT22;31871;49.418;8.752;2022-12-29T08:42:29;11.90;99.90
46137;DHT22;31871;49.418;8.752;2022-12-29T08:44:57;11.90;99.90
46137;DHT22;31871;49.418;8.752;2022-12-29T08:47:23;11.90;99.90
46137;DHT22;31871;49.418;8.752;2022-12-29T08:49:48;11.90;99.90
46137;DHT22;31871;49.418;8.752;2022-12-29T08:52:14;12.00;99.90
46137;DHT22;31871;49.418;8.752;2022-12-29T08:54:39;12.10;99.90
46137;DHT22;31871;49.418;8.752;2022-12-29T08:57:05;12.10;99.90
46137;DHT22;31871;49.418;8.752;2022-12-29T08:59:30;12.10;99.90
46137;DHT22;31871;49.418;8.752;2022-12-29T09:01:56;12.10;99.90
46137;DHT22;31871;49.418;8.752;2022-12-29T09:04:21;12.20;99.90
46137;DHT22;31871;49.418;8.752;2022-12-29T09:06:48;12.20;99.90
46137;DHT22;31871;49.418;8.752;2022-12-29T09:09:14;12.30;99.90
46137;DHT22;31871;49.418;8.752;2022-12-29T09:11:41;12.30;99.90
46137;DHT22;31871;49.418;8.752;2022-12-29T09:14:07;12.20;99.90
46137;DHT22;31871;49.418;8.752;2022-12-29T09:16:33;12.30;99.90
46137;DHT22;31871;49.418;8.752;2022-12-29T09:18:59;12.30;99.90
46137;DHT22;31871;49.418;8.752;2022-12-29T09:21:24;12.30;99.90
46137;DHT22;31871;49.418;8.752;2022-12-29T09:23:50;12.20;99.90
46137;DHT22;31871;49.418;8.752;2022-12-29T09:26:15;12.30;99.90
46137;DHT22;31871;49.418;8.752;2022-12-29T09:28:41;12.50;99.90
46137;DHT22;31871;49.418;8.752;2022-12-29T09:31:07;12.50;99.90
46137;DHT22;31871;49.418;8.752;2022-12-29T09:33:33;12.50;99.90
46137;DHT22;31871;49.418;8.752;2022-12-29T09:35:59;12.50;99.90
46137;DHT22;31871;49.418;8.752;2022-12-29T09:38:25;12.50;99.90
46137;DHT22;31871;49.418;8.752;2022-12-29T09:40:59;12.40;99.90
46137;DHT22;31871;49.418;8.752;2022-12-29T09:49:07;12.60;99.90
46137;DHT22;31871;49.418;8.752;2022-12-29T09:51:36;12.50;99.90
46137;DHT22;31871;49.418;8.752;2022-12-29T09:54:33;12.60;99.90
46137;DHT22;31871;49.418;8.752;2022-12-29T09:57:00;12.50;99.90
46137;DHT22;31871;49.418;8.752;2022-12-29T09:59:40;12.40;99.90
46137;DHT22;31871;49.418;8.752;2022-12-29T10:04:39;12.20;99.90
46137;DHT22;31871;49.418;8.752;2022-12-29T10:10:31;12.20;99.90
46137;DHT22;31871;49.418;8.752;2022-12-29T10:16:46;12.40;99.90
46137;DHT22;31871;49.418;8.752;2022-12-29T10:19:10;12.40;99.90
46137;DHT22;31871;49.418;8.752;2022-12-29T10:24:41;12.10;99.90
46137;DHT22;31871;49.418;8.752;2022-12-29T10:27:13;12.10;99.90
46137;DHT22;31871;49.418;8.752;2022-12-29T10:29:49;12.10;99.90
46137;DHT22;31871;49.418;8.752;2022-12-29T10:34:57;12.30;99.90
46137;DHT22;31871;49.418;8.752;2022-12-29T10:39:51;12.30;99.90
46137;DHT22;31871;49.418;8.752;2022-12-29T10:42:34;12.20;99.90
46137;DHT22;31871;49.418;8.752;2022-12-29T10:45:03;12.20;99.90
46137;DHT22;31871;49.418;8.752;2022-12-29T10:47:34;12.10;99.90
46137;DHT22;31871;49.418;8.752;2022-12-29T10:50:02;12.10;99.90
46137;DHT22;31871;49.418;8.752;2022-12-29T10:52:28;12.10;99.90
46137;DHT22;31871;49.418;8.752;2022-12-29T10:55:01;12.10;99.90
46137;DHT22;31871;49.418;8.752;2022-12-29T10:57:39;12.20;99.90
46137;DHT22;31871;49.418;8.752;2022-12-29T11:00:14;12.30;99.90
46137;DHT22;31871;49.418;8.752;2022-12-29T11:05:57;12.50;99.90
46137;DHT22;31871;49.418;8.752;2022-12-29T11:08:30;12.50;99.90
46137;DHT22;31871;49.418;8.752;2022-12-29T11:11:05;12.60;99.90
46137;DHT22;31871;49.418;8.752;2022-12-29T11:14:19;12.60;99.90
46137;DHT22;31871;49.418;8.752;2022-12-29T11:16:31;12.70;99.90
46137;DHT22;31871;49.418;8.752;2022-12-29T11:18:58;12.70;99.90
46137;DHT22;31871;49.418;8.752;2022-12-29T11:26:26;13.00;99.90
46137;DHT22;31871;49.418;8.752;2022-12-29T11:31:59;13.20;99.90
46137;DHT22;31871;49.418;8.752;2022-12-29T11:34:35;13.10;99.90
46137;DHT22;31871;49.418;8.752;2022-12-29T11:37:10;13.00;99.90
46137;DHT22;31871;49.418;8.752;2022-12-29T11:42:14;13.00;99.90
46137;DHT22;31871;49.418;8.752;2022-12-29T11:44:44;13.00;99.90
46137;DHT22;31871;49.418;8.752;2022-12-29T11:47:19;13.00;99.90
46137;DHT22;31871;49.418;8.752;2022-12-29T11:49:52;12.90;99.90
46137;DHT22;31871;49.418;8.752;2022-12-29T11:52:25;12.90;99.90
46137;DHT22;31871;49.418;8.752;2022-12-29T11:54:53;12.90;99.90
46137;DHT22;31871;49.418;8.752;2022-12-29T11:57:19;12.80;99.90
46137;DHT22;31871;49.418;8.752;2022-12-29T11:59:54;12.80;99.90
46137;DHT22;31871;49.418;8.752;2022-12-29T12:05:08;12.90;99.90
46137;DHT22;31871;49.418;8.752;2022-12-29T12:07:46;12.80;99.90
46137;DHT22;31871;49.418;8.752;2022-12-29T12:10:23;12.80;99.90
46137;DHT22;31871;49.418;8.752;2022-12-29T12:13:18;12.90;99.90
46137;DHT22;31871;49.418;8.752;2022-12-29T12:18:47;12.90;99.90
46137;DHT22;31871;49.418;8.752;2022-12-29T12:21:30;12.60;99.90
46137;DHT22;31871;49.418;8.752;2022-12-29T12:24:23;12.50;99.90
46137;DHT22;31871;49.418;8.752;2022-12-29T12:27:23;12.50;99.90
46137;DHT22;31871;49.418;8.752;2022-12-29T12:33:11;12.50;99.90
46137;DHT22;31871;49.418;8.752;2022-12-29T12:41:10;12.60;99.90
46137;DHT22;31871;49.418;8.752;2022-12-29T12:52:12;12.60;99.90
46137;DHT22;31871;49.418;8.752;2022-12-29T12:55:16;12.60;99.90
46137;DHT22;31871;49.418;8.752;2022-12-29T12:57:53;12.60;99.90
46137;DHT22;31871;49.418;8.752;2022-12-29T13:00:23;12.60;99.90
46137;DHT22;31871;49.418;8.752;2022-12-29T13:08:48;12.60;99.90
46137;DHT22;31871;49.418;8.752;2022-12-29T13:19:38;12.00;99.90
46137;DHT22;31871;49.418;8.752;2022-12-29T13:25:15;11.80;99.90
46137;DHT22;31871;49.418;8.752;2022-12-29T13:31:09;11.50;99.90
46137;DHT22;31871;49.418;8.752;2022-12-29T13:34:23;11.50;99.90
46137;DHT22;31871;49.418;8.752;2022-12-29T13:36:59;11.50;99.90
46137;DHT22;31871;49.418;8.752;2022-12-29T13:39:33;11.60;99.90
46137;DHT22;31871;49.418;8.752;2022-12-29T13:42:01;11.60;99.90
46137;DHT22;31871;49.418;8.752;2022-12-29T13:44:37;11.70;99.90
46137;DHT22;31871;49.418;8.752;2022-12-29T13:50:00;11.60;99.90
46137;DHT22;31871;49.418;8.752;2022-12-29T13:55:17;11.60;99.90
46137;DHT22;31871;49.418;8.752;2022-12-29T13:57:49;11.60;99.90
46137;DHT22;31871;49.418;8.752;2022-12-29T14:00:19;11.60;99.90
46137;DHT22;31871;49.418;8.752;2022-12-29T14:02:50;11.50;99.90
46137;DHT22;31871;49.418;8.752;2022-12-29T14:05:31;11.40;99.90
46137;DHT22;31871;49.418;8.752;2022-12-29T14:08:03;11.40;99.90
46137;DHT22;31871;49.418;8.752;2022-12-29T14:10:37;11.40;99.90
46137;DHT22;31871;49.418;8.752;2022-12-29T14:13:13;11.40;99.90
46137;DHT22;31871;49.418;8.752;2022-12-29T14:15:42;11.50;99.90
46137;DHT22;31871;49.418;8.752;2022-12-29T14:18:17;11.40;99.90
46137;DHT22;31871;49.418;8.752;2022-12-29T14:20:53;11.40;99.90
46137;DHT22;31871;49.418;8.752;2022-12-29T14:28:37;11.30;99.90
46137;DHT22;31871;49.418;8.752;2022-12-29T14:36:40;11.10;99.90
46137;DHT22;31871;49.418;8.752;2022-12-29T14:39:44;11.10;99.90
46137;DHT22;31871;49.418;8.752;2022-12-29T14:44:52;11.10;99.90
46137;DHT22;31871;49.418;8.752;2022-12-29T14:50:42;11.10;99.90
46137;DHT22;31871;49.418;8.752;2022-12-29T14:52:50;11.10;99.90
46137;DHT22;31871;49.418;8.752;2022-12-29T14:57:46;10.90;99.90
46137;DHT22;31871;49.418;8.752;2022-12-29T15:00:24;10.90;99.90
46137;DHT22;31871;49.418;8.752;2022-12-29T15:03:16;10.80;99.90
46137;DHT22;31871;49.418;8.752;2022-12-29T15:05:46;10.90;99.90
46137;DHT22;31871;49.418;8.752;2022-12-29T15:08:18;10.90;99.90
46137;DHT22;31871;49.418;8.752;2022-12-29T15:11:21;11.00;99.90
46137;DHT22;31871;49.418;8.752;2022-12-29T15:13:47;11.00;99.90
46137;DHT22;31871;49.418;8.752;2022-12-29T15:16:33;10.90;99.90
46137;DHT22;31871;49.418;8.752;2022-12-29T15:19:01;11.00;99.90
46137;DHT22;31871;49.418;8.752;2022-12-29T15:21:30;11.00;99.90
46137;DHT22;31871;49.418;8.752;2022-12-29T15:23:56;10.90;99.90
46137;DHT22;31871;49.418;8.752;2022-12-29T15:26:22;10.80;99.90
46137;DHT22;31871;49.418;8.752;2022-12-29T15:28:52;10.80;99.90
46137;DHT22;31871;49.418;8.752;2022-12-29T15:31:21;10.80;99.90
46137;DHT22;31871;49.418;8.752;2022-12-29T15:33:51;10.80;99.90
46137;DHT22;31871;49.418;8.752;2022-12-29T15:36:21;10.80;99.90
46137;DHT22;31871;49.418;8.752;2022-12-29T15:38:48;10.80;99.90
46137;DHT22;31871;49.418;8.752;2022-12-29T15:41:36;10.80;99.90
46137;DHT22;31871;49.418;8.752;2022-12-29T15:44:37;10.80;99.90
46137;DHT22;31871;49.418;8.752;2022-12-29T15:47:04;10.90;99.90
46137;DHT22;31871;49.418;8.752;2022-12-29T15:49:31;10.90;99.90
46137;DHT22;31871;49.418;8.752;2022-12-29T15:51:57;10.90;99.90
46137;DHT22;31871;49.418;8.752;2022-12-29T15:54:24;10.90;99.90
46137;DHT22;31871;49.418;8.752;2022-12-29T15:56:51;10.90;99.90
46137;DHT22;31871;49.418;8.752;2022-12-29T15:59:29;10.80;99.90
46137;DHT22;31871;49.418;8.752;2022-12-29T16:01:56;10.80;99.90
46137;DHT22;31871;49.418;8.752;2022-12-29T16:04:23;10.70;99.90
46137;DHT22;31871;49.418;8.752;2022-12-29T16:07:04;10.70;99.90
46137;DHT22;31871;49.418;8.752;2022-12-29T16:09:34;10.70;99.90
46137;DHT22;31871;49.418;8.752;2022-12-29T16:12:04;10.60;99.90
46137;DHT22;31871;49.418;8.752;2022-12-29T16:17:25;10.60;99.90
46137;DHT22;31871;49.418;8.752;2022-12-29T16:22:31;10.40;99.90
46137;DHT22;31871;49.418;8.752;2022-12-29T16:25:00;10.50;99.90
46137;DHT22;31871;49.418;8.752;2022-12-29T16:29:54;10.70;99.90
46137;DHT22;31871;49.418;8.752;2022-12-29T16:32:28;10.70;99.90
46137;DHT22;31871;49.418;8.752;2022-12-29T16:35:16;10.70;99.90
46137;DHT22;31871;49.418;8.752;2022-12-29T16:37:42;10.60;99.90
46137;DHT22;31871;49.418;8.752;2022-12-29T16:42:47;10.50;99.90
46137;DHT22;31871;49.418;8.752;2022-12-29T16:50:34;10.50;99.90
46137;DHT22;31871;49.418;8.752;2022-12-29T16:53:01;10.50;99.90
46137;DHT22;31871;49.418;8.752;2022-12-29T16:55:28;10.40;99.90
46137;DHT22;31871;49.418;8.752;2022-12-29T16:57:55;10.40;99.90
46137;DHT22;31871;49.418;8.752;2022-12-29T17:00:34;10.40;99.90
46137;DHT22;31871;49.418;8.752;2022-12-29T17:03:00;10.40;99.90
46137;DHT22;31871;49.418;8.752;2022-12-29T17:05:27;10.40;99.90
46137;DHT22;31871;49.418;8.752;2022-12-29T17:07:53;10.40;99.90
46137;DHT22;31871;49.418;8.752;2022-12-29T17:10:20;10.40;99.90
46137;DHT22;31871;49.418;8.752;2022-12-29T17:12:47;10.30;99.90
46137;DHT22;31871;49.418;8.752;2022-12-29T17:15:27;10.30;99.90
46137;DHT22;31871;49.418;8.752;2022-12-29T17:17:59;10.40;99.90
46137;DHT22;31871;49.418;8.752;2022-12-29T17:20:27;10.40;99.90
46137;DHT22;31871;49.418;8.752;2022-12-29T17:22:54;10.60;99.90
46137;DHT22;31871;49.418;8.752;2022-12-29T17:25:30;10.60;99.90
46137;DHT22;31871;49.418;8.752;2022-12-29T17:28:00;10.50;99.90
46137;DHT22;31871;49.418;8.752;2022-12-29T17:30:27;10.40;99.90
46137;DHT22;31871;49.418;8.752;2022-12-29T17:33:06;10.30;99.90
46137;DHT22;31871;49.418;8.752;2022-12-29T17:35:34;10.30;99.90
46137;DHT22;31871;49.418;8.752;2022-12-29T17:38:00;10.30;99.90
46137;DHT22;31871;49.418;8.752;2022-12-29T17:40:35;10.30;99.90
46137;DHT22;31871;49.418;8.752;2022-12-29T17:43:01;10.20;99.90
46137;DHT22;31871;49.418;8.752;2022-12-29T17:45:29;10.20;99.90
46137;DHT22;31871;49.418;8.752;2022-12-29T17:47:56;10.20;99.90
46137;DHT22;31871;49.418;8.752;2022-12-29T17:50:26;10.20;99.90
46137;DHT22;31871;49.418;8.752;2022-12-29T17:53:05;10.20;99.90
46137;DHT22;31871;49.418;8.752;2022-12-29T17:55:33;10.20;99.90
46137;DHT22;31871;49.418;8.752;2022-12-29T17:57:59;10.20;99.90
46137;DHT22;31871;49.418;8.752;2022-12-29T18:00:27;10.30;99.90
46137;DHT22;31871;49.418;8.752;2022-12-29T18:02:54;10.20;99.90
46137;DHT22;31871;49.418;8.752;2022-12-29T18:05:25;10.20;99.90
46137;DHT22;31871;49.418;8.752;2022-12-29T18:07:53;10.20;99.90
46137;DHT22;31871;49.418;8.752;2022-12-29T18:10:20;10.20;99.90
46137;DHT22;31871;49.418;8.752;2022-12-29T18:12:47;10.20;99.90
46137;DHT22;31871;49.418;8.752;2022-12-29T18:15:22;10.20;99.90
46137;DHT22;31871;49.418;8.752;2022-12-29T18:17:49;10.20;99.90
46137;DHT22;31871;49.418;8.752;2022-12-29T18:20:18;10.20;99.90